sensor_id;sensor_type;location;lat;lon;timestamp;pressure;altitude;pressure_sealevel;temperature;humidity
12468;BME280;57850;52.922;6.256;2022-07-29T00:00:23;101952.47;;;17.90;100.00
12468;BME280;57850;52.922;6.256;2022-07-29T00:02:50;101950.97;;;17.84;100.00
12468;BME280;57850;52.922;6.256;2022-07-29T00:05:16;101945.63;;;17.86;100.00
12468;BME280;57850;52.922;6.256;2022-07-29T00:07:44;101937.28;;;17.76;100.00
12468;BME280;57850;52.922;6.256;2022-07-29T00:10:11;101935.66;;;17.74;100.00
12468;BME280;57850;52.922;6.256;2022-07-29T00:12:40;101935.66;;;17.74;100.00
12468;BME280;57850;52.922;6.256;2022-07-29T00:15:07;101927.66;;;17.75;100.00
12468;BME280;57850;52.922;6.256;2022-07-29T00:17:34;101920.94;;;17.87;100.00
12468;BME280;57850;52.922;6.256;2022-07-29T00:20:01;101919.81;;;17.74;100.00
12468;BME280;57850;52.922;6.256;2022-07-29T00:22:27;101921.06;;;17.84;100.00
12468;BME280;57850;52.922;6.256;2022-07-29T00:24:58;101915.78;;;17.67;100.00
12468;BME280;57850;52.922;6.256;2022-07-29T00:27:24;101912.19;;;17.67;100.00
12468;BME280;57850;52.922;6.256;2022-07-29T00:29:51;101907.56;;;17.73;100.00
12468;BME280;57850;52.922;6.256;2022-07-29T00:32:17;101912.19;;;17.67;100.00
12468;BME280;57850;52.922;6.256;2022-07-29T00:34:44;101898.38;;;17.62;100.00
12468;BME280;57850;52.922;6.256;2022-07-29T00:37:28;101898.53;;;17.59;100.00
12468;BME280;57850;52.922;6.256;2022-07-29T00:39:56;101893.38;;;17.56;100.00
12468;BME280;57850;52.922;6.256;2022-07-29T00:42:23;101888.88;;;17.58;100.00
12468;BME280;57850;52.922;6.256;2022-07-29T00:44:50;101879.38;;;17.54;100.00
12468;BME280;57850;52.922;6.256;2022-07-29T00:47:16;101881.44;;;17.48;100.00
12468;BME280;57850;52.922;6.256;2022-07-29T00:49:46;101879.59;;;17.50;100.00
12468;BME280;57850;52.922;6.256;2022-07-29T00:52:13;101863.50;;;17.37;100.00
12468;BME280;57850;52.922;6.256;2022-07-29T00:54:40;101866.06;;;17.39;100.00
12468;BME280;57850;52.922;6.256;2022-07-29T00:57:08;101862.13;;;17.47;100.00
12468;BME280;57850;52.922;6.256;2022-07-29T00:59:34;101852.94;;;17.37;100.00
12468;BME280;57850;52.922;6.256;2022-07-29T01:02:01;101850.16;;;17.40;100.00
12468;BME280;57850;52.922;6.256;2022-07-29T01:04:28;101840.31;;;17.44;100.00
12468;BME280;57850;52.922;6.256;2022-07-29T01:06:55;101841.47;;;17.38;100.00
12468;BME280;57850;52.922;6.256;2022-07-29T01:09:22;101837.81;;;17.41;100.00
12468;BME280;57850;52.922;6.256;2022-07-29T01:11:49;101835.25;;;17.39;100.00
12468;BME280;57850;52.922;6.256;2022-07-29T01:14:18;101825.91;;;17.32;100.00
12468;BME280;57850;52.922;6.256;2022-07-29T01:16:51;101824.53;;;17.42;100.00
12468;BME280;57850;52.922;6.256;2022-07-29T01:19:34;101825.78;;;17.35;100.00
12468;BME280;57850;52.922;6.256;2022-07-29T01:22:14;101822.56;;;17.47;100.00
12468;BME280;57850;52.922;6.256;2022-07-29T01:25:04;101818.56;;;17.39;100.00
12468;BME280;57850;52.922;6.256;2022-07-29T01:27:41;101815.78;;;17.42;100.00
12468;BME280;57850;52.922;6.256;2022-07-29T01:30:12;101809.00;;;17.36;100.00
12468;BME280;57850;52.922;6.256;2022-07-29T01:32:40;101802.56;;;17.42;100.00
12468;BME280;57850;52.922;6.256;2022-07-29T01:35:12;101803.44;;;17.42;100.00
12468;BME280;57850;52.922;6.256;2022-07-29T01:37:43;101787.75;;;17.39;100.00
12468;BME280;57850;52.922;6.256;2022-07-29T01:40:15;101783.84;;;17.29;100.00
12468;BME280;57850;52.922;6.256;2022-07-29T01:42:50;101773.03;;;17.35;100.00
12468;BME280;57850;52.922;6.256;2022-07-29T01:45:22;101771.16;;;17.37;100.00
12468;BME280;57850;52.922;6.256;2022-07-29T01:47:56;101762.53;;;17.34;100.00
12468;BME280;57850;52.922;6.256;2022-07-29T01:50:30;101764.88;;;17.40;100.00
12468;BME280;57850;52.922;6.256;2022-07-29T01:53:01;101763.63;;;17.47;100.00
12468;BME280;57850;52.922;6.256;2022-07-29T01:55:31;101758.97;;;17.35;100.00
12468;BME280;57850;52.922;6.256;2022-07-29T01:58:00;101752.69;;;17.37;100.00
12468;BME280;57850;52.922;6.256;2022-07-29T02:00:30;101754.78;;;17.31;100.00
12468;BME280;57850;52.922;6.256;2022-07-29T02:02:58;101741.44;;;17.34;100.00
12468;BME280;57850;52.922;6.256;2022-07-29T02:05:27;101734.38;;;17.34;100.00
12468;BME280;57850;52.922;6.256;2022-07-29T02:07:56;101732.50;;;17.36;100.00
12468;BME280;57850;52.922;6.256;2022-07-29T02:10:27;101729.66;;;17.41;100.00
12468;BME280;57850;52.922;6.256;2022-07-29T02:12:56;101733.44;;;17.35;100.00
12468;BME280;57850;52.922;6.256;2022-07-29T02:15:25;101730.81;;;17.35;100.00
12468;BME280;57850;52.922;6.256;2022-07-29T02:17:57;101725.81;;;17.29;100.00
12468;BME280;57850;52.922;6.256;2022-07-29T02:20:25;101721.25;;;17.33;100.00
12468;BME280;57850;52.922;6.256;2022-07-29T02:22:54;101722.91;;;17.35;100.00
12468;BME280;57850;52.922;6.256;2022-07-29T02:25:23;101716.66;;;17.36;100.00
12468;BME280;57850;52.922;6.256;2022-07-29T02:27:51;101718.59;;;17.33;100.00
12468;BME280;57850;52.922;6.256;2022-07-29T02:30:19;101718.44;;;17.36;100.00
12468;BME280;57850;52.922;6.256;2022-07-29T02:32:49;101713.19;;;17.36;100.00
12468;BME280;57850;52.922;6.256;2022-07-29T02:35:20;101710.63;;;17.34;100.00
12468;BME280;57850;52.922;6.256;2022-07-29T02:37:48;101710.78;;;17.31;100.00
12468;BME280;57850;52.922;6.256;2022-07-29T02:40:38;101703.88;;;17.29;100.00
12468;BME280;57850;52.922;6.256;2022-07-29T02:43:06;101695.19;;;17.27;100.00
12468;BME280;57850;52.922;6.256;2022-07-29T02:45:35;101690.75;;;17.27;100.00
12468;BME280;57850;52.922;6.256;2022-07-29T02:48:06;101700.06;;;17.34;100.00
12468;BME280;57850;52.922;6.256;2022-07-29T02:50:42;101701.00;;;17.33;100.00
12468;BME280;57850;52.922;6.256;2022-07-29T02:53:14;101698.34;;;17.33;100.00
12468;BME280;57850;52.922;6.256;2022-07-29T02:55:45;101700.59;;;17.24;100.00
12468;BME280;57850;52.922;6.256;2022-07-29T02:58:16;101700.06;;;17.34;100.00
12468;BME280;57850;52.922;6.256;2022-07-29T03:00:49;101705.41;;;17.33;100.00
12468;BME280;57850;52.922;6.256;2022-07-29T03:03:20;101705.34;;;17.34;100.00
12468;BME280;57850;52.922;6.256;2022-07-29T03:05:49;101701.91;;;17.32;100.00
12468;BME280;57850;52.922;6.256;2022-07-29T03:08:18;101707.59;;;17.42;100.00
12468;BME280;57850;52.922;6.256;2022-07-29T03:10:46;101714.13;;;17.35;100.00
12468;BME280;57850;52.922;6.256;2022-07-29T03:13:14;101708.22;;;17.30;100.00
12468;BME280;57850;52.922;6.256;2022-07-29T03:15:42;101703.50;;;17.19;100.00
12468;BME280;57850;52.922;6.256;2022-07-29T03:18:09;101709.53;;;17.21;100.00
12468;BME280;57850;52.922;6.256;2022-07-29T03:20:36;101708.81;;;17.18;100.00
12468;BME280;57850;52.922;6.256;2022-07-29T03:23:04;101716.22;;;17.28;100.00
12468;BME280;57850;52.922;6.256;2022-07-29T03:25:31;101718.06;;;17.26;100.00
12468;BME280;57850;52.922;6.256;2022-07-29T03:27:57;101708.66;;;17.21;100.00
12468;BME280;57850;52.922;6.256;2022-07-29T03:30:26;101713.25;;;17.17;100.00
12468;BME280;57850;52.922;6.256;2022-07-29T03:32:56;101709.69;;;17.18;100.00
12468;BME280;57850;52.922;6.256;2022-07-29T03:35:22;101715.16;;;17.13;100.00
12468;BME280;57850;52.922;6.256;2022-07-29T03:37:49;101718.66;;;17.14;100.00
12468;BME280;57850;52.922;6.256;2022-07-29T03:40:22;101712.94;;;17.06;100.00
12468;BME280;57850;52.922;6.256;2022-07-29T03:42:49;101702.53;;;17.03;100.00
12468;BME280;57850;52.922;6.256;2022-07-29T03:45:19;101706.94;;;17.02;100.00
12468;BME280;57850;52.922;6.256;2022-07-29T03:47:49;101704.47;;;16.99;100.00
12468;BME280;57850;52.922;6.256;2022-07-29T03:50:19;101702.38;;;17.06;100.00
12468;BME280;57850;52.922;6.256;2022-07-29T03:52:50;101704.75;;;16.93;100.00
12468;BME280;57850;52.922;6.256;2022-07-29T03:55:18;101695.06;;;16.94;100.00
12468;BME280;57850;52.922;6.256;2022-07-29T03:57:45;101703.59;;;16.99;100.00
12468;BME280;57850;52.922;6.256;2022-07-29T04:00:13;101703.75;;;16.96;100.00
12468;BME280;57850;52.922;6.256;2022-07-29T04:02:41;101712.69;;;16.93;100.00
12468;BME280;57850;52.922;6.256;2022-07-29T04:05:12;101703.91;;;16.93;100.00
12468;BME280;57850;52.922;6.256;2022-07-29T04:07:38;101696.00;;;16.93;100.00
12468;BME280;57850;52.922;6.256;2022-07-29T04:10:06;101691.47;;;16.78;100.00
12468;BME280;57850;52.922;6.256;2022-07-29T04:12:34;101682.34;;;16.85;100.00
12468;BME280;57850;52.922;6.256;2022-07-29T04:15:01;101688.09;;;16.93;100.00
12468;BME280;57850;52.922;6.256;2022-07-29T04:17:27;101695.88;;;16.77;100.00
12468;BME280;57850;52.922;6.256;2022-07-29T04:19:57;101686.25;;;16.76;100.00
12468;BME280;57850;52.922;6.256;2022-07-29T04:22:23;101681.50;;;16.84;100.00
12468;BME280;57850;52.922;6.256;2022-07-29T04:24:50;101686.81;;;16.83;100.00
12468;BME280;57850;52.922;6.256;2022-07-29T04:27:16;101688.34;;;16.88;100.00
12468;BME280;57850;52.922;6.256;2022-07-29T04:29:44;101690.88;;;16.90;100.00
12468;BME280;57850;52.922;6.256;2022-07-29T04:32:11;101700.84;;;16.83;100.00
12468;BME280;57850;52.922;6.256;2022-07-29T04:34:37;101691.09;;;16.85;100.00
12468;BME280;57850;52.922;6.256;2022-07-29T04:37:04;101692.03;;;16.84;100.00
12468;BME280;57850;52.922;6.256;2022-07-29T04:39:30;101693.50;;;16.90;100.00
12468;BME280;57850;52.922;6.256;2022-07-29T04:41:57;101705.97;;;16.86;100.00
12468;BME280;57850;52.922;6.256;2022-07-29T04:44:23;101701.56;;;16.87;100.00
12468;BME280;57850;52.922;6.256;2022-07-29T04:46:51;101701.50;;;16.88;100.00
12468;BME280;57850;52.922;6.256;2022-07-29T04:49:18;101696.25;;;16.88;100.00
12468;BME280;57850;52.922;6.256;2022-07-29T04:51:44;101698.72;;;16.91;100.00
12468;BME280;57850;52.922;6.256;2022-07-29T04:54:11;101710.91;;;16.94;100.00
12468;BME280;57850;52.922;6.256;2022-07-29T04:56:37;101711.66;;;16.96;100.00
12468;BME280;57850;52.922;6.256;2022-07-29T04:59:06;101705.38;;;16.98;100.00
12468;BME280;57850;52.922;6.256;2022-07-29T05:01:39;101708.88;;;16.99;100.00
12468;BME280;57850;52.922;6.256;2022-07-29T05:04:09;101710.28;;;17.06;100.00
12468;BME280;57850;52.922;6.256;2022-07-29T05:06:36;101704.31;;;17.02;100.00
12468;BME280;57850;52.922;6.256;2022-07-29T05:09:02;101712.28;;;17.01;100.00
12468;BME280;57850;52.922;6.256;2022-07-29T05:11:29;101716.50;;;17.05;100.00
12468;BME280;57850;52.922;6.256;2022-07-29T05:13:56;101724.56;;;17.02;100.00
12468;BME280;57850;52.922;6.256;2022-07-29T05:16:22;101715.97;;;17.16;100.00
12468;BME280;57850;52.922;6.256;2022-07-29T05:18:49;101723.88;;;17.16;100.00
12468;BME280;57850;52.922;6.256;2022-07-29T05:21:17;101726.53;;;17.16;100.00
12468;BME280;57850;52.922;6.256;2022-07-29T05:23:43;101732.50;;;17.19;100.00
12468;BME280;57850;52.922;6.256;2022-07-29T05:26:10;101729.94;;;17.18;100.00
12468;BME280;57850;52.922;6.256;2022-07-29T05:28:37;101735.16;;;17.19;100.00
12468;BME280;57850;52.922;6.256;2022-07-29T05:31:03;101730.72;;;17.20;100.00
12468;BME280;57850;52.922;6.256;2022-07-29T05:33:30;101728.16;;;17.18;100.00
12468;BME280;57850;52.922;6.256;2022-07-29T05:35:56;101729.56;;;17.25;100.00
12468;BME280;57850;52.922;6.256;2022-07-29T05:38:28;101742.59;;;17.28;100.00
12468;BME280;57850;52.922;6.256;2022-07-29T05:41:00;101733.88;;;17.26;100.00
12468;BME280;57850;52.922;6.256;2022-07-29T05:43:27;101730.25;;;17.29;100.00
12468;BME280;57850;52.922;6.256;2022-07-29T05:45:55;101733.72;;;17.29;100.00
12468;BME280;57850;52.922;6.256;2022-07-29T05:48:22;101732.97;;;17.27;100.00
12468;BME280;57850;52.922;6.256;2022-07-29T05:50:49;101733.66;;;17.31;100.00
12468;BME280;57850;52.922;6.256;2022-07-29T05:53:15;101726.16;;;17.40;100.00
12468;BME280;57850;52.922;6.256;2022-07-29T05:55:43;101749.66;;;17.45;100.00
12468;BME280;57850;52.922;6.256;2022-07-29T05:58:12;101747.97;;;17.44;100.00
12468;BME280;57850;52.922;6.256;2022-07-29T06:00:38;101747.00;;;17.63;100.00
12468;BME280;57850;52.922;6.256;2022-07-29T06:03:05;101746.19;;;17.61;100.00
12468;BME280;57850;52.922;6.256;2022-07-29T06:05:31;101738.13;;;17.82;100.00
12468;BME280;57850;52.922;6.256;2022-07-29T06:07:58;101747.50;;;17.87;100.00
12468;BME280;57850;52.922;6.256;2022-07-29T06:10:25;101763.94;;;17.92;100.00
12468;BME280;57850;52.922;6.256;2022-07-29T06:12:54;101763.31;;;18.04;100.00
12468;BME280;57850;52.922;6.256;2022-07-29T06:15:21;101775.59;;;18.05;100.00
12468;BME280;57850;52.922;6.256;2022-07-29T06:17:47;101770.84;;;18.12;100.00
12468;BME280;57850;52.922;6.256;2022-07-29T06:20:14;101776.56;;;18.20;100.00
12468;BME280;57850;52.922;6.256;2022-07-29T06:22:41;101773.91;;;18.20;100.00
12468;BME280;57850;52.922;6.256;2022-07-29T06:25:08;101772.41;;;18.16;100.00
12468;BME280;57850;52.922;6.256;2022-07-29T06:27:35;101774.13;;;18.33;100.00
12468;BME280;57850;52.922;6.256;2022-07-29T06:30:04;101779.41;;;18.33;100.00
12468;BME280;57850;52.922;6.256;2022-07-29T06:32:32;101778.69;;;18.46;100.00
12468;BME280;57850;52.922;6.256;2022-07-29T06:34:59;101788.78;;;18.55;100.00
12468;BME280;57850;52.922;6.256;2022-07-29T06:37:26;101787.44;;;18.64;100.00
12468;BME280;57850;52.922;6.256;2022-07-29T06:39:52;101793.75;;;18.61;100.00
12468;BME280;57850;52.922;6.256;2022-07-29T06:42:41;101787.69;;;18.59;100.00
12468;BME280;57850;52.922;6.256;2022-07-29T06:45:10;101782.47;;;18.58;100.00
12468;BME280;57850;52.922;6.256;2022-07-29T06:47:37;101790.00;;;18.65;100.00
12468;BME280;57850;52.922;6.256;2022-07-29T06:50:05;101788.38;;;18.63;100.00
12468;BME280;57850;52.922;6.256;2022-07-29T06:52:32;101779.44;;;18.65;100.00
12468;BME280;57850;52.922;6.256;2022-07-29T06:54:58;101787.94;;;18.70;100.00
12468;BME280;57850;52.922;6.256;2022-07-29T06:57:25;101791.28;;;18.74;100.00
12468;BME280;57850;52.922;6.256;2022-07-29T06:59:52;101781.97;;;18.83;100.00
12468;BME280;57850;52.922;6.256;2022-07-29T07:02:23;101793.75;;;18.93;100.00
12468;BME280;57850;52.922;6.256;2022-07-29T07:04:50;101795.13;;;19.00;100.00
12468;BME280;57850;52.922;6.256;2022-07-29T07:07:16;101801.78;;;19.07;100.00
12468;BME280;57850;52.922;6.256;2022-07-29T07:09:43;101797.00;;;19.13;100.00
12468;BME280;57850;52.922;6.256;2022-07-29T07:12:09;101816.81;;;19.06;100.00
12468;BME280;57850;52.922;6.256;2022-07-29T07:14:36;101824.66;;;19.08;100.00
12468;BME280;57850;52.922;6.256;2022-07-29T07:17:02;101826.34;;;18.93;100.00
12468;BME280;57850;52.922;6.256;2022-07-29T07:19:31;101826.69;;;19.03;100.00
12468;BME280;57850;52.922;6.256;2022-07-29T07:21:58;101818.69;;;18.89;100.00
12468;BME280;57850;52.922;6.256;2022-07-29T07:24:24;101832.34;;;18.97;100.00
12468;BME280;57850;52.922;6.256;2022-07-29T07:26:51;101830.03;;;18.91;100.00
12468;BME280;57850;52.922;6.256;2022-07-29T07:29:17;101819.13;;;18.97;100.00
12468;BME280;57850;52.922;6.256;2022-07-29T07:31:44;101828.16;;;18.93;100.00
12468;BME280;57850;52.922;6.256;2022-07-29T07:34:11;101830.44;;;18.83;100.00
12468;BME280;57850;52.922;6.256;2022-07-29T07:36:38;101829.09;;;18.76;100.00
12468;BME280;57850;52.922;6.256;2022-07-29T07:39:05;101828.47;;;18.87;100.00
12468;BME280;57850;52.922;6.256;2022-07-29T07:41:32;101825.59;;;18.91;100.00
12468;BME280;57850;52.922;6.256;2022-07-29T07:43:58;101824.16;;;18.86;100.00
12468;BME280;57850;52.922;6.256;2022-07-29T07:46:25;101824.91;;;18.88;100.00
12468;BME280;57850;52.922;6.256;2022-07-29T07:48:52;101809.47;;;18.96;100.00
12468;BME280;57850;52.922;6.256;2022-07-29T07:51:18;101818.41;;;18.93;100.00
12468;BME280;57850;52.922;6.256;2022-07-29T07:53:46;101798.97;;;18.94;100.00
12468;BME280;57850;52.922;6.256;2022-07-29T07:56:15;101791.28;;;18.90;100.00
12468;BME280;57850;52.922;6.256;2022-07-29T07:58:42;101790.44;;;18.89;100.00
12468;BME280;57850;52.922;6.256;2022-07-29T08:01:09;101796.34;;;18.94;100.00
12468;BME280;57850;52.922;6.256;2022-07-29T08:03:35;101803.59;;;18.91;100.00
12468;BME280;57850;52.922;6.256;2022-07-29T08:06:03;101807.84;;;18.93;100.00
12468;BME280;57850;52.922;6.256;2022-07-29T08:08:29;101814.50;;;19.00;100.00
12468;BME280;57850;52.922;6.256;2022-07-29T08:10:58;101814.75;;;18.96;100.00
12468;BME280;57850;52.922;6.256;2022-07-29T08:13:27;101824.97;;;19.02;100.00
12468;BME280;57850;52.922;6.256;2022-07-29T08:15:55;101828.84;;;18.96;100.00
12468;BME280;57850;52.922;6.256;2022-07-29T08:18:27;101806.13;;;18.92;100.00
12468;BME280;57850;52.922;6.256;2022-07-29T08:20:54;101787.94;;;19.02;100.00
12468;BME280;57850;52.922;6.256;2022-07-29T08:23:21;101770.03;;;19.07;100.00
12468;BME280;57850;52.922;6.256;2022-07-29T08:25:48;101748.34;;;19.16;100.00
12468;BME280;57850;52.922;6.256;2022-07-29T08:28:16;101742.28;;;19.14;100.00
12468;BME280;57850;52.922;6.256;2022-07-29T08:30:42;101730.00;;;19.13;100.00
12468;BME280;57850;52.922;6.256;2022-07-29T08:33:09;101683.81;;;18.89;100.00
12468;BME280;57850;52.922;6.256;2022-07-29T08:35:36;101624.75;;;18.88;100.00
12468;BME280;57850;52.922;6.256;2022-07-29T08:38:02;101576.91;;;18.77;100.00
12468;BME280;57850;52.922;6.256;2022-07-29T08:40:30;101529.25;;;18.79;100.00
12468;BME280;57850;52.922;6.256;2022-07-29T08:42:57;101516.34;;;18.88;100.00
12468;BME280;57850;52.922;6.256;2022-07-29T08:45:28;101521.31;;;18.79;100.00
12468;BME280;57850;52.922;6.256;2022-07-29T08:47:55;101523.00;;;18.80;100.00
12468;BME280;57850;52.922;6.256;2022-07-29T08:50:22;101526.25;;;18.85;100.00
12468;BME280;57850;52.922;6.256;2022-07-29T08:52:50;101520.22;;;18.97;100.00
12468;BME280;57850;52.922;6.256;2022-07-29T08:55:17;101511.72;;;19.06;100.00
12468;BME280;57850;52.922;6.256;2022-07-29T08:57:45;101529.97;;;19.10;100.00
12468;BME280;57850;52.922;6.256;2022-07-29T09:00:12;101527.50;;;19.21;100.00
12468;BME280;57850;52.922;6.256;2022-07-29T09:02:43;101519.47;;;19.37;100.00
12468;BME280;57850;52.922;6.256;2022-07-29T09:05:13;101510.91;;;19.48;100.00
12468;BME280;57850;52.922;6.256;2022-07-29T09:07:39;101543.78;;;19.58;100.00
12468;BME280;57850;52.922;6.256;2022-07-29T09:10:09;101556.38;;;19.68;100.00
12468;BME280;57850;52.922;6.256;2022-07-29T09:12:35;101552.34;;;19.90;100.00
12468;BME280;57850;52.922;6.256;2022-07-29T09:15:02;101566.97;;;19.83;100.00
12468;BME280;57850;52.922;6.256;2022-07-29T09:17:44;101581.88;;;19.98;100.00
12468;BME280;57850;52.922;6.256;2022-07-29T09:20:13;101593.94;;;20.30;100.00
12468;BME280;57850;52.922;6.256;2022-07-29T09:22:40;101591.97;;;20.46;100.00
12468;BME280;57850;52.922;6.256;2022-07-29T09:25:07;101611.91;;;20.66;100.00
12468;BME280;57850;52.922;6.256;2022-07-29T09:27:34;101630.50;;;20.78;100.00
12468;BME280;57850;52.922;6.256;2022-07-29T09:30:03;101625.78;;;21.35;100.00
12468;BME280;57850;52.922;6.256;2022-07-29T09:32:30;101684.19;;;21.35;100.00
12468;BME280;57850;52.922;6.256;2022-07-29T09:35:18;101687.06;;;21.45;100.00
12468;BME280;57850;52.922;6.256;2022-07-29T09:37:46;101715.69;;;21.27;100.00
12468;BME280;57850;52.922;6.256;2022-07-29T09:40:15;101714.09;;;21.25;100.00
12468;BME280;57850;52.922;6.256;2022-07-29T09:42:44;101690.88;;;21.41;100.00
12468;BME280;57850;52.922;6.256;2022-07-29T09:45:11;101714.91;;;21.52;100.00
12468;BME280;57850;52.922;6.256;2022-07-29T09:47:43;101719.25;;;21.53;100.00
12468;BME280;57850;52.922;6.256;2022-07-29T09:50:12;101722.25;;;21.49;100.00
12468;BME280;57850;52.922;6.256;2022-07-29T09:52:47;101711.84;;;21.71;100.00
12468;BME280;57850;52.922;6.256;2022-07-29T09:55:14;101708.47;;;21.94;100.00
12468;BME280;57850;52.922;6.256;2022-07-29T09:57:41;101723.25;;;22.11;100.00
12468;BME280;57850;52.922;6.256;2022-07-29T10:00:11;101732.59;;;22.29;100.00
12468;BME280;57850;52.922;6.256;2022-07-29T10:02:39;101720.81;;;22.57;100.00
12468;BME280;57850;52.922;6.256;2022-07-29T10:05:18;101753.78;;;22.79;100.00
12468;BME280;57850;52.922;6.256;2022-07-29T10:07:47;101765.63;;;23.23;100.00
12468;BME280;57850;52.922;6.256;2022-07-29T10:10:22;101778.94;;;23.46;100.00
12468;BME280;57850;52.922;6.256;2022-07-29T10:12:51;101777.34;;;24.14;100.00
12468;BME280;57850;52.922;6.256;2022-07-29T10:15:18;101765.28;;;25.40;100.00
12468;BME280;57850;52.922;6.256;2022-07-29T10:17:46;101791.91;;;26.03;100.00
12468;BME280;57850;52.922;6.256;2022-07-29T10:20:13;101787.28;;;26.96;100.00
12468;BME280;57850;52.922;6.256;2022-07-29T10:22:41;101791.41;;;27.39;100.00
12468;BME280;57850;52.922;6.256;2022-07-29T10:25:10;101809.59;;;27.26;100.00
12468;BME280;57850;52.922;6.256;2022-07-29T10:27:37;101797.66;;;27.68;100.00
12468;BME280;57850;52.922;6.256;2022-07-29T10:30:05;101803.78;;;28.16;100.00
12468;BME280;57850;52.922;6.256;2022-07-29T10:32:39;101817.56;;;27.65;100.00
12468;BME280;57850;52.922;6.256;2022-07-29T10:35:17;101812.19;;;27.65;100.00
12468;BME280;57850;52.922;6.256;2022-07-29T10:37:59;101797.31;;;28.46;100.00
12468;BME280;57850;52.922;6.256;2022-07-29T10:40:45;101809.22;;;28.44;100.00
12468;BME280;57850;52.922;6.256;2022-07-29T10:43:36;101817.50;;;27.94;100.00
12468;BME280;57850;52.922;6.256;2022-07-29T10:46:04;101805.72;;;28.34;100.00
12468;BME280;57850;52.922;6.256;2022-07-29T10:48:31;101818.22;;;27.96;100.00
12468;BME280;57850;52.922;6.256;2022-07-29T10:50:59;101799.97;;;28.56;100.00
12468;BME280;57850;52.922;6.256;2022-07-29T10:53:48;101810.88;;;28.08;100.00
12468;BME280;57850;52.922;6.256;2022-07-29T10:56:27;101837.22;;;27.17;100.00
12468;BME280;57850;52.922;6.256;2022-07-29T10:59:23;101843.50;;;26.87;100.00
12468;BME280;57850;52.922;6.256;2022-07-29T11:01:52;101804.00;;;28.33;100.00
12468;BME280;57850;52.922;6.256;2022-07-29T11:04:59;101803.94;;;28.52;100.00
12468;BME280;57850;52.922;6.256;2022-07-29T11:07:27;101805.75;;;28.24;100.00
12468;BME280;57850;52.922;6.256;2022-07-29T11:10:22;101831.44;;;27.11;100.00
12468;BME280;57850;52.922;6.256;2022-07-29T11:12:50;101825.56;;;27.37;100.00
12468;BME280;57850;52.922;6.256;2022-07-29T11:15:19;101810.72;;;28.00;100.00
12468;BME280;57850;52.922;6.256;2022-07-29T11:18:08;101796.56;;;28.54;100.00
12468;BME280;57850;52.922;6.256;2022-07-29T11:20:37;101810.56;;;28.01;100.00
12468;BME280;57850;52.922;6.256;2022-07-29T11:23:25;101820.53;;;27.53;99.97
12468;BME280;57850;52.922;6.256;2022-07-29T11:26:16;101811.75;;;27.70;100.00
12468;BME280;57850;52.922;6.256;2022-07-29T11:28:57;101806.66;;;27.77;100.00
12468;BME280;57850;52.922;6.256;2022-07-29T11:31:34;101810.47;;;27.84;100.00
12468;BME280;57850;52.922;6.256;2022-07-29T11:34:22;101819.06;;;27.30;100.00
12468;BME280;57850;52.922;6.256;2022-07-29T11:37:17;101811.19;;;27.66;100.00
12468;BME280;57850;52.922;6.256;2022-07-29T11:39:45;101776.53;;;29.03;99.39
12468;BME280;57850;52.922;6.256;2022-07-29T11:42:44;101706.72;;;30.90;95.04
12468;BME280;57850;52.922;6.256;2022-07-29T11:45:14;101718.75;;;30.45;95.21
12468;BME280;57850;52.922;6.256;2022-07-29T11:47:51;101698.19;;;31.10;94.31
12468;BME280;57850;52.922;6.256;2022-07-29T11:50:33;101710.91;;;30.60;94.32
12468;BME280;57850;52.922;6.256;2022-07-29T11:53:02;101736.78;;;29.85;96.02
12468;BME280;57850;52.922;6.256;2022-07-29T11:55:29;101747.31;;;29.61;95.30
12468;BME280;57850;52.922;6.256;2022-07-29T11:58:01;101739.97;;;29.89;96.32
12468;BME280;57850;52.922;6.256;2022-07-29T12:00:31;101729.25;;;30.22;93.43
12468;BME280;57850;52.922;6.256;2022-07-29T12:03:00;101706.91;;;30.88;92.83
12468;BME280;57850;52.922;6.256;2022-07-29T12:05:33;101682.19;;;31.49;92.11
12468;BME280;57850;52.922;6.256;2022-07-29T12:08:12;101680.22;;;31.98;90.98
12468;BME280;57850;52.922;6.256;2022-07-29T12:10:39;101737.69;;;30.02;91.53
12468;BME280;57850;52.922;6.256;2022-07-29T12:13:07;101746.16;;;29.63;93.55
12468;BME280;57850;52.922;6.256;2022-07-29T12:15:36;101708.63;;;31.05;92.17
12468;BME280;57850;52.922;6.256;2022-07-29T12:18:14;101679.34;;;32.14;91.26
12468;BME280;57850;52.922;6.256;2022-07-29T12:20:41;101690.63;;;31.54;90.53
12468;BME280;57850;52.922;6.256;2022-07-29T12:23:09;101696.84;;;31.14;91.23
12468;BME280;57850;52.922;6.256;2022-07-29T12:25:38;101688.41;;;31.50;90.05
12468;BME280;57850;52.922;6.256;2022-07-29T12:28:06;101710.72;;;30.61;90.07
12468;BME280;57850;52.922;6.256;2022-07-29T12:30:42;101701.38;;;31.14;90.23
12468;BME280;57850;52.922;6.256;2022-07-29T12:33:14;101677.56;;;31.74;88.92
12468;BME280;57850;52.922;6.256;2022-07-29T12:35:42;101681.50;;;31.63;91.26
12468;BME280;57850;52.922;6.256;2022-07-29T12:38:10;101664.50;;;32.10;90.39
12468;BME280;57850;52.922;6.256;2022-07-29T12:40:37;101643.56;;;32.73;88.72
12468;BME280;57850;52.922;6.256;2022-07-29T12:43:08;101663.50;;;32.11;85.85
12468;BME280;57850;52.922;6.256;2022-07-29T12:45:35;101723.28;;;30.11;90.32
12468;BME280;57850;52.922;6.256;2022-07-29T12:48:05;101722.72;;;30.33;91.74
12468;BME280;57850;52.922;6.256;2022-07-29T12:50:34;101722.31;;;30.20;92.02
12468;BME280;57850;52.922;6.256;2022-07-29T12:53:11;101733.56;;;30.15;90.42